sensor_id;sensor_type;location;lat;lon;timestamp;P1;durP1;ratioP1;P2;durP2;ratioP2
73938;SDS011;62291;47.554;8.504;2022-11-25T00:00:45;392.08;;;29.08;;
73938;SDS011;62291;47.554;8.504;2022-11-25T00:03:11;331.98;;;29.67;;
73938;SDS011;62291;47.554;8.504;2022-11-25T00:05:36;659.88;;;43.83;;
73938;SDS011;62291;47.554;8.504;2022-11-25T00:08:02;330.52;;;26.80;;
73938;SDS011;62291;47.554;8.504;2022-11-25T00:10:28;214.30;;;20.33;;
73938;SDS011;62291;47.554;8.504;2022-11-25T00:12:54;240.88;;;21.80;;
73938;SDS011;62291;47.554;8.504;2022-11-25T00:15:19;248.82;;;23.08;;
73938;SDS011;62291;47.554;8.504;2022-11-25T00:17:45;216.50;;;22.40;;
73938;SDS011;62291;47.554;8.504;2022-11-25T00:20:11;101.30;;;18.17;;
73938;SDS011;62291;47.554;8.504;2022-11-25T00:22:36;51.00;;;16.13;;
73938;SDS011;62291;47.554;8.504;2022-11-25T00:25:02;22.25;;;13.57;;
73938;SDS011;62291;47.554;8.504;2022-11-25T00:27:28;23.42;;;13.27;;
73938;SDS011;62291;47.554;8.504;2022-11-25T00:29:54;25.38;;;14.60;;
73938;SDS011;62291;47.554;8.504;2022-11-25T00:32:20;26.35;;;16.15;;
73938;SDS011;62291;47.554;8.504;2022-11-25T00:34:46;33.63;;;17.42;;
73938;SDS011;62291;47.554;8.504;2022-11-25T00:37:12;29.17;;;15.45;;
73938;SDS011;62291;47.554;8.504;2022-11-25T00:39:38;28.67;;;15.10;;
73938;SDS011;62291;47.554;8.504;2022-11-25T00:42:03;25.88;;;14.80;;
73938;SDS011;62291;47.554;8.504;2022-11-25T00:44:47;26.75;;;14.07;;
73938;SDS011;62291;47.554;8.504;2022-11-25T00:47:14;19.98;;;13.65;;
73938;SDS011;62291;47.554;8.504;2022-11-25T00:49:46;22.33;;;14.27;;
73938;SDS011;62291;47.554;8.504;2022-11-25T00:52:14;20.90;;;13.77;;
73938;SDS011;62291;47.554;8.504;2022-11-25T00:54:41;23.05;;;15.50;;
73938;SDS011;62291;47.554;8.504;2022-11-25T00:57:08;84.90;;;17.23;;
73938;SDS011;62291;47.554;8.504;2022-11-25T00:59:34;52.33;;;16.08;;
73938;SDS011;62291;47.554;8.504;2022-11-25T01:02:00;74.68;;;17.30;;
73938;SDS011;62291;47.554;8.504;2022-11-25T01:04:26;96.72;;;18.63;;
73938;SDS011;62291;47.554;8.504;2022-11-25T01:06:51;73.10;;;17.30;;
73938;SDS011;62291;47.554;8.504;2022-11-25T01:09:18;38.45;;;15.63;;
73938;SDS011;62291;47.554;8.504;2022-11-25T01:11:44;30.33;;;17.48;;
73938;SDS011;62291;47.554;8.504;2022-11-25T01:14:10;25.60;;;15.77;;
73938;SDS011;62291;47.554;8.504;2022-11-25T01:16:36;26.50;;;16.42;;
73938;SDS011;62291;47.554;8.504;2022-11-25T01:19:02;23.77;;;14.50;;
73938;SDS011;62291;47.554;8.504;2022-11-25T01:21:29;25.77;;;15.23;;
73938;SDS011;62291;47.554;8.504;2022-11-25T01:23:57;25.17;;;15.00;;
73938;SDS011;62291;47.554;8.504;2022-11-25T01:26:27;25.23;;;15.90;;
73938;SDS011;62291;47.554;8.504;2022-11-25T01:29:03;37.25;;;18.65;;
73938;SDS011;62291;47.554;8.504;2022-11-25T01:31:31;32.60;;;17.27;;
73938;SDS011;62291;47.554;8.504;2022-11-25T01:34:01;26.50;;;15.77;;
73938;SDS011;62291;47.554;8.504;2022-11-25T01:36:31;24.45;;;14.98;;
73938;SDS011;62291;47.554;8.504;2022-11-25T01:38:58;26.42;;;16.33;;
73938;SDS011;62291;47.554;8.504;2022-11-25T01:41:25;28.08;;;16.05;;
73938;SDS011;62291;47.554;8.504;2022-11-25T01:46:30;21.80;;;14.90;;
73938;SDS011;62291;47.554;8.504;2022-11-25T01:55:08;25.15;;;15.20;;
73938;SDS011;62291;47.554;8.504;2022-11-25T01:58:00;24.52;;;14.25;;
73938;SDS011;62291;47.554;8.504;2022-11-25T02:00:37;36.92;;;17.05;;
73938;SDS011;62291;47.554;8.504;2022-11-25T02:03:03;26.35;;;15.07;;
73938;SDS011;62291;47.554;8.504;2022-11-25T02:05:44;22.45;;;14.50;;
73938;SDS011;62291;47.554;8.504;2022-11-25T02:08:16;25.70;;;15.23;;
73938;SDS011;62291;47.554;8.504;2022-11-25T02:10:44;27.33;;;16.52;;
73938;SDS011;62291;47.554;8.504;2022-11-25T02:13:10;50.92;;;20.45;;
73938;SDS011;62291;47.554;8.504;2022-11-25T02:15:36;28.88;;;15.95;;
73938;SDS011;62291;47.554;8.504;2022-11-25T02:18:02;30.42;;;16.83;;
73938;SDS011;62291;47.554;8.504;2022-11-25T02:20:28;30.27;;;15.68;;
73938;SDS011;62291;47.554;8.504;2022-11-25T02:25:50;25.48;;;15.32;;
73938;SDS011;62291;47.554;8.504;2022-11-25T02:28:18;27.27;;;16.13;;
73938;SDS011;62291;47.554;8.504;2022-11-25T02:30:47;25.63;;;15.05;;
73938;SDS011;62291;47.554;8.504;2022-11-25T02:33:14;22.15;;;12.95;;
73938;SDS011;62291;47.554;8.504;2022-11-25T02:35:41;20.70;;;13.40;;
73938;SDS011;62291;47.554;8.504;2022-11-25T02:40:45;20.65;;;14.15;;
73938;SDS011;62291;47.554;8.504;2022-11-25T02:43:14;27.70;;;15.88;;
73938;SDS011;62291;47.554;8.504;2022-11-25T02:45:42;24.20;;;14.82;;
73938;SDS011;62291;47.554;8.504;2022-11-25T02:48:13;21.67;;;14.90;;
73938;SDS011;62291;47.554;8.504;2022-11-25T02:50:39;25.52;;;16.15;;
73938;SDS011;62291;47.554;8.504;2022-11-25T02:53:04;31.83;;;16.52;;
73938;SDS011;62291;47.554;8.504;2022-11-25T02:55:30;25.17;;;15.18;;
73938;SDS011;62291;47.554;8.504;2022-11-25T02:57:56;28.48;;;16.73;;
73938;SDS011;62291;47.554;8.504;2022-11-25T03:00:21;28.83;;;16.15;;
73938;SDS011;62291;47.554;8.504;2022-11-25T03:02:47;26.10;;;16.95;;
73938;SDS011;62291;47.554;8.504;2022-11-25T03:05:17;26.42;;;15.75;;
73938;SDS011;62291;47.554;8.504;2022-11-25T03:07:43;27.33;;;16.85;;
73938;SDS011;62291;47.554;8.504;2022-11-25T03:10:09;37.97;;;19.92;;
73938;SDS011;62291;47.554;8.504;2022-11-25T03:12:35;36.17;;;19.10;;
73938;SDS011;62291;47.554;8.504;2022-11-25T03:15:00;37.72;;;17.95;;
73938;SDS011;62291;47.554;8.504;2022-11-25T03:17:26;47.60;;;19.33;;
73938;SDS011;62291;47.554;8.504;2022-11-25T03:19:52;134.05;;;28.67;;
73938;SDS011;62291;47.554;8.504;2022-11-25T03:22:18;92.40;;;25.52;;
73938;SDS011;62291;47.554;8.504;2022-11-25T03:24:43;215.55;;;27.92;;
73938;SDS011;62291;47.554;8.504;2022-11-25T03:27:09;59.33;;;20.85;;
73938;SDS011;62291;47.554;8.504;2022-11-25T03:29:35;39.30;;;19.38;;
73938;SDS011;62291;47.554;8.504;2022-11-25T03:32:01;46.50;;;19.00;;
73938;SDS011;62291;47.554;8.504;2022-11-25T03:34:26;69.63;;;21.50;;
73938;SDS011;62291;47.554;8.504;2022-11-25T03:36:52;68.10;;;19.58;;
73938;SDS011;62291;47.554;8.504;2022-11-25T03:39:18;59.95;;;19.13;;
73938;SDS011;62291;47.554;8.504;2022-11-25T03:41:43;43.80;;;19.27;;
73938;SDS011;62291;47.554;8.504;2022-11-25T03:44:09;44.70;;;19.15;;
73938;SDS011;62291;47.554;8.504;2022-11-25T03:46:34;53.00;;;19.13;;
73938;SDS011;62291;47.554;8.504;2022-11-25T03:49:00;51.22;;;20.98;;
73938;SDS011;62291;47.554;8.504;2022-11-25T03:51:26;33.58;;;18.42;;
73938;SDS011;62291;47.554;8.504;2022-11-25T03:53:52;28.15;;;17.95;;
73938;SDS011;62291;47.554;8.504;2022-11-25T03:56:17;27.58;;;17.10;;
73938;SDS011;62291;47.554;8.504;2022-11-25T03:58:43;31.42;;;18.52;;
73938;SDS011;62291;47.554;8.504;2022-11-25T04:01:09;27.33;;;17.27;;
73938;SDS011;62291;47.554;8.504;2022-11-25T04:03:35;27.50;;;17.08;;
73938;SDS011;62291;47.554;8.504;2022-11-25T04:06:00;28.58;;;16.98;;
73938;SDS011;62291;47.554;8.504;2022-11-25T04:08:26;28.88;;;16.95;;
73938;SDS011;62291;47.554;8.504;2022-11-25T04:10:52;27.25;;;16.88;;
73938;SDS011;62291;47.554;8.504;2022-11-25T04:13:18;36.83;;;19.27;;
73938;SDS011;62291;47.554;8.504;2022-11-25T04:15:48;267.75;;;28.52;;
73938;SDS011;62291;47.554;8.504;2022-11-25T04:18:15;172.93;;;28.10;;
73938;SDS011;62291;47.554;8.504;2022-11-25T04:20:42;189.20;;;26.67;;
73938;SDS011;62291;47.554;8.504;2022-11-25T04:23:09;129.55;;;24.00;;
73938;SDS011;62291;47.554;8.504;2022-11-25T04:25:35;204.90;;;25.38;;
73938;SDS011;62291;47.554;8.504;2022-11-25T04:28:01;43.58;;;20.45;;
73938;SDS011;62291;47.554;8.504;2022-11-25T04:30:28;43.78;;;20.85;;
73938;SDS011;62291;47.554;8.504;2022-11-25T04:32:54;35.63;;;18.00;;
73938;SDS011;62291;47.554;8.504;2022-11-25T04:35:20;29.73;;;16.92;;
73938;SDS011;62291;47.554;8.504;2022-11-25T04:37:46;28.43;;;17.90;;
73938;SDS011;62291;47.554;8.504;2022-11-25T04:40:11;28.75;;;17.42;;
73938;SDS011;62291;47.554;8.504;2022-11-25T04:42:38;41.35;;;19.50;;
73938;SDS011;62291;47.554;8.504;2022-11-25T04:45:08;29.15;;;17.67;;
73938;SDS011;62291;47.554;8.504;2022-11-25T04:47:36;27.40;;;16.58;;
73938;SDS011;62291;47.554;8.504;2022-11-25T04:50:03;41.45;;;18.13;;
73938;SDS011;62291;47.554;8.504;2022-11-25T04:52:30;136.40;;;23.73;;
73938;SDS011;62291;47.554;8.504;2022-11-25T04:54:56;638.22;;;45.17;;
73938;SDS011;62291;47.554;8.504;2022-11-25T04:57:21;426.13;;;33.40;;
73938;SDS011;62291;47.554;8.504;2022-11-25T04:59:47;95.63;;;21.40;;
73938;SDS011;62291;47.554;8.504;2022-11-25T05:02:14;43.33;;;19.42;;
73938;SDS011;62291;47.554;8.504;2022-11-25T05:04:48;134.70;;;22.23;;
73938;SDS011;62291;47.554;8.504;2022-11-25T05:07:15;35.03;;;18.35;;
73938;SDS011;62291;47.554;8.504;2022-11-25T05:09:42;32.25;;;16.77;;
73938;SDS011;62291;47.554;8.504;2022-11-25T05:12:10;36.08;;;18.13;;
73938;SDS011;62291;47.554;8.504;2022-11-25T05:14:39;30.10;;;17.07;;
73938;SDS011;62291;47.554;8.504;2022-11-25T05:17:05;29.52;;;15.75;;
73938;SDS011;62291;47.554;8.504;2022-11-25T05:19:32;55.35;;;18.45;;
73938;SDS011;62291;47.554;8.504;2022-11-25T05:22:00;31.02;;;17.75;;
73938;SDS011;62291;47.554;8.504;2022-11-25T05:24:26;178.05;;;26.33;;
73938;SDS011;62291;47.554;8.504;2022-11-25T05:26:52;250.77;;;28.45;;
73938;SDS011;62291;47.554;8.504;2022-11-25T05:29:17;88.90;;;21.80;;
73938;SDS011;62291;47.554;8.504;2022-11-25T05:31:43;174.88;;;25.20;;
73938;SDS011;62291;47.554;8.504;2022-11-25T05:34:09;204.82;;;24.75;;
73938;SDS011;62291;47.554;8.504;2022-11-25T05:36:34;301.23;;;33.75;;
73938;SDS011;62291;47.554;8.504;2022-11-25T05:39:00;348.80;;;36.60;;
73938;SDS011;62291;47.554;8.504;2022-11-25T05:41:27;408.48;;;37.88;;
73938;SDS011;62291;47.554;8.504;2022-11-25T05:43:52;732.33;;;48.88;;
73938;SDS011;62291;47.554;8.504;2022-11-25T05:46:18;201.18;;;27.98;;
73938;SDS011;62291;47.554;8.504;2022-11-25T05:48:44;659.67;;;51.08;;
73938;SDS011;62291;47.554;8.504;2022-11-25T05:51:10;679.22;;;52.42;;
73938;SDS011;62291;47.554;8.504;2022-11-25T05:53:35;346.55;;;33.35;;
73938;SDS011;62291;47.554;8.504;2022-11-25T05:56:02;400.83;;;39.20;;
73938;SDS011;62291;47.554;8.504;2022-11-25T05:58:30;659.00;;;57.25;;
73938;SDS011;62291;47.554;8.504;2022-11-25T06:00:56;626.80;;;52.78;;
73938;SDS011;62291;47.554;8.504;2022-11-25T06:03:23;723.63;;;59.67;;
73938;SDS011;62291;47.554;8.504;2022-11-25T06:05:49;731.22;;;61.65;;
73938;SDS011;62291;47.554;8.504;2022-11-25T06:08:15;755.55;;;58.80;;
73938;SDS011;62291;47.554;8.504;2022-11-25T06:10:40;445.83;;;43.65;;
73938;SDS011;62291;47.554;8.504;2022-11-25T06:13:07;551.85;;;53.45;;
73938;SDS011;62291;47.554;8.504;2022-11-25T06:15:34;598.42;;;55.13;;
73938;SDS011;62291;47.554;8.504;2022-11-25T06:18:05;520.72;;;53.67;;
73938;SDS011;62291;47.554;8.504;2022-11-25T06:20:30;612.63;;;58.03;;
73938;SDS011;62291;47.554;8.504;2022-11-25T06:22:56;400.73;;;42.65;;
73938;SDS011;62291;47.554;8.504;2022-11-25T06:25:22;354.48;;;39.40;;
73938;SDS011;62291;47.554;8.504;2022-11-25T06:27:49;369.25;;;39.50;;
73938;SDS011;62291;47.554;8.504;2022-11-25T06:30:15;460.05;;;48.72;;
73938;SDS011;62291;47.554;8.504;2022-11-25T06:32:41;465.67;;;45.28;;
73938;SDS011;62291;47.554;8.504;2022-11-25T06:35:07;434.85;;;47.05;;
73938;SDS011;62291;47.554;8.504;2022-11-25T06:37:33;388.30;;;38.60;;
73938;SDS011;62291;47.554;8.504;2022-11-25T06:39:58;347.95;;;35.80;;
73938;SDS011;62291;47.554;8.504;2022-11-25T06:42:24;477.55;;;49.72;;
73938;SDS011;62291;47.554;8.504;2022-11-25T06:44:50;393.52;;;41.10;;
73938;SDS011;62291;47.554;8.504;2022-11-25T06:47:15;380.23;;;36.78;;
73938;SDS011;62291;47.554;8.504;2022-11-25T06:49:41;217.13;;;30.77;;
73938;SDS011;62291;47.554;8.504;2022-11-25T06:52:07;334.45;;;38.42;;
73938;SDS011;62291;47.554;8.504;2022-11-25T06:54:32;365.67;;;37.58;;
73938;SDS011;62291;47.554;8.504;2022-11-25T06:56:58;322.45;;;37.60;;
73938;SDS011;62291;47.554;8.504;2022-11-25T06:59:24;336.33;;;38.00;;
73938;SDS011;62291;47.554;8.504;2022-11-25T07:01:50;487.50;;;51.47;;
73938;SDS011;62291;47.554;8.504;2022-11-25T07:04:16;422.58;;;46.33;;
73938;SDS011;62291;47.554;8.504;2022-11-25T07:06:41;351.00;;;41.45;;
73938;SDS011;62291;47.554;8.504;2022-11-25T07:09:07;373.27;;;40.95;;
73938;SDS011;62291;47.554;8.504;2022-11-25T07:11:34;225.02;;;34.55;;
73938;SDS011;62291;47.554;8.504;2022-11-25T07:14:02;278.08;;;39.75;;
73938;SDS011;62291;47.554;8.504;2022-11-25T07:16:30;240.18;;;36.08;;
73938;SDS011;62291;47.554;8.504;2022-11-25T07:19:00;191.48;;;28.60;;
73938;SDS011;62291;47.554;8.504;2022-11-25T07:21:27;140.75;;;33.70;;
73938;SDS011;62291;47.554;8.504;2022-11-25T07:23:54;173.48;;;38.42;;
73938;SDS011;62291;47.554;8.504;2022-11-25T07:26:21;97.65;;;29.02;;
73938;SDS011;62291;47.554;8.504;2022-11-25T07:28:49;111.65;;;32.17;;
73938;SDS011;62291;47.554;8.504;2022-11-25T07:33:43;108.80;;;32.10;;
73938;SDS011;62291;47.554;8.504;2022-11-25T07:36:10;109.68;;;34.72;;
73938;SDS011;62291;47.554;8.504;2022-11-25T07:38:37;60.15;;;29.23;;
73938;SDS011;62291;47.554;8.504;2022-11-25T07:41:07;54.17;;;27.10;;
73938;SDS011;62291;47.554;8.504;2022-11-25T07:43:35;70.38;;;30.33;;
73938;SDS011;62291;47.554;8.504;2022-11-25T07:46:18;179.55;;;39.53;;
73938;SDS011;62291;47.554;8.504;2022-11-25T07:48:47;95.40;;;29.00;;
73938;SDS011;62291;47.554;8.504;2022-11-25T07:53:47;293.75;;;34.40;;
73938;SDS011;62291;47.554;8.504;2022-11-25T07:56:14;253.52;;;39.03;;
73938;SDS011;62291;47.554;8.504;2022-11-25T07:58:41;515.97;;;41.63;;
73938;SDS011;62291;47.554;8.504;2022-11-25T08:01:09;549.30;;;45.10;;
73938;SDS011;62291;47.554;8.504;2022-11-25T08:03:36;374.38;;;39.28;;
73938;SDS011;62291;47.554;8.504;2022-11-25T08:06:04;244.70;;;34.53;;
73938;SDS011;62291;47.554;8.504;2022-11-25T08:08:33;487.02;;;45.88;;
73938;SDS011;62291;47.554;8.504;2022-11-25T08:10:59;790.20;;;66.88;;
73938;SDS011;62291;47.554;8.504;2022-11-25T08:13:25;408.73;;;46.17;;
73938;SDS011;62291;47.554;8.504;2022-11-25T08:15:51;672.33;;;54.10;;
73938;SDS011;62291;47.554;8.504;2022-11-25T08:18:17;424.20;;;42.92;;
73938;SDS011;62291;47.554;8.504;2022-11-25T08:20:43;630.83;;;51.00;;
73938;SDS011;62291;47.554;8.504;2022-11-25T08:23:09;538.72;;;45.97;;
73938;SDS011;62291;47.554;8.504;2022-11-25T08:25:38;477.17;;;45.85;;
73938;SDS011;62291;47.554;8.504;2022-11-25T08:28:05;288.70;;;41.60;;
73938;SDS011;62291;47.554;8.504;2022-11-25T08:30:31;349.80;;;44.50;;
73938;SDS011;62291;47.554;8.504;2022-11-25T08:32:57;868.35;;;62.95;;
73938;SDS011;62291;47.554;8.504;2022-11-25T08:35:24;73.78;;;29.30;;
73938;SDS011;62291;47.554;8.504;2022-11-25T08:37:49;60.28;;;26.00;;
73938;SDS011;62291;47.554;8.504;2022-11-25T08:40:15;147.23;;;32.28;;
73938;SDS011;62291;47.554;8.504;2022-11-25T08:42:41;90.38;;;25.52;;
73938;SDS011;62291;47.554;8.504;2022-11-25T08:45:07;85.97;;;25.48;;
73938;SDS011;62291;47.554;8.504;2022-11-25T08:47:35;176.38;;;30.92;;
73938;SDS011;62291;47.554;8.504;2022-11-25T08:50:03;107.93;;;28.58;;
73938;SDS011;62291;47.554;8.504;2022-11-25T08:52:37;58.42;;;22.25;;
73938;SDS011;62291;47.554;8.504;2022-11-25T08:55:03;120.63;;;26.58;;
73938;SDS011;62291;47.554;8.504;2022-11-25T08:57:29;85.60;;;25.67;;
73938;SDS011;62291;47.554;8.504;2022-11-25T08:59:55;94.15;;;24.55;;
73938;SDS011;62291;47.554;8.504;2022-11-25T09:02:21;252.68;;;34.28;;
73938;SDS011;62291;47.554;8.504;2022-11-25T09:04:46;37.00;;;19.98;;
73938;SDS011;62291;47.554;8.504;2022-11-25T09:07:12;28.70;;;19.27;;
73938;SDS011;62291;47.554;8.504;2022-11-25T09:09:38;32.63;;;19.40;;
73938;SDS011;62291;47.554;8.504;2022-11-25T09:12:03;29.92;;;19.40;;
73938;SDS011;62291;47.554;8.504;2022-11-25T09:14:29;26.95;;;18.65;;
73938;SDS011;62291;47.554;8.504;2022-11-25T09:16:55;58.90;;;22.15;;
73938;SDS011;62291;47.554;8.504;2022-11-25T09:19:21;97.43;;;25.48;;
73938;SDS011;62291;47.554;8.504;2022-11-25T09:21:47;348.33;;;34.65;;
73938;SDS011;62291;47.554;8.504;2022-11-25T09:24:13;48.70;;;21.27;;
73938;SDS011;62291;47.554;8.504;2022-11-25T09:26:39;29.55;;;18.10;;
73938;SDS011;62291;47.554;8.504;2022-11-25T09:29:06;56.33;;;22.95;;
73938;SDS011;62291;47.554;8.504;2022-11-25T09:31:32;33.97;;;20.20;;
73938;SDS011;62291;47.554;8.504;2022-11-25T09:33:58;18.25;;;15.02;;
73938;SDS011;62291;47.554;8.504;2022-11-25T09:36:24;16.05;;;13.35;;
73938;SDS011;62291;47.554;8.504;2022-11-25T09:38:50;18.30;;;13.57;;
73938;SDS011;62291;47.554;8.504;2022-11-25T09:41:26;15.25;;;11.82;;
73938;SDS011;62291;47.554;8.504;2022-11-25T09:47:41;14.65;;;9.75;;
73938;SDS011;62291;47.554;8.504;2022-11-25T09:53:12;12.35;;;9.07;;
73938;SDS011;62291;47.554;8.504;2022-11-25T09:56:00;10.52;;;8.60;;
73938;SDS011;62291;47.554;8.504;2022-11-25T09:58:34;12.77;;;8.48;;
73938;SDS011;62291;47.554;8.504;2022-11-25T10:01:17;9.30;;;7.97;;
73938;SDS011;62291;47.554;8.504;2022-11-25T10:03:49;11.10;;;8.60;;
73938;SDS011;62291;47.554;8.504;2022-11-25T10:08:49;10.07;;;7.10;;
73938;SDS011;62291;47.554;8.504;2022-11-25T10:11:29;9.25;;;6.10;;
73938;SDS011;62291;47.554;8.504;2022-11-25T10:19:10;9.13;;;7.10;;
73938;SDS011;62291;47.554;8.504;2022-11-25T10:21:37;8.93;;;7.28;;
73938;SDS011;62291;47.554;8.504;2022-11-25T10:24:04;8.73;;;6.85;;
73938;SDS011;62291;47.554;8.504;2022-11-25T10:26:34;9.05;;;6.97;;
73938;SDS011;62291;47.554;8.504;2022-11-25T10:29:15;10.27;;;7.00;;
73938;SDS011;62291;47.554;8.504;2022-11-25T10:31:47;8.48;;;6.75;;
73938;SDS011;62291;47.554;8.504;2022-11-25T10:34:35;9.00;;;7.25;;
73938;SDS011;62291;47.554;8.504;2022-11-25T10:37:10;9.40;;;7.30;;
73938;SDS011;62291;47.554;8.504;2022-11-25T10:39:49;14.23;;;8.23;;
73938;SDS011;62291;47.554;8.504;2022-11-25T10:42:22;14.18;;;8.32;;
73938;SDS011;62291;47.554;8.504;2022-11-25T10:44:50;10.38;;;8.30;;
73938;SDS011;62291;47.554;8.504;2022-11-25T10:52:49;13.05;;;9.20;;
73938;SDS011;62291;47.554;8.504;2022-11-25T10:55:27;10.00;;;8.77;;
73938;SDS011;62291;47.554;8.504;2022-11-25T10:57:55;15.32;;;9.43;;
73938;SDS011;62291;47.554;8.504;2022-11-25T11:02:57;11.35;;;8.63;;
73938;SDS011;62291;47.554;8.504;2022-11-25T11:05:36;10.63;;;8.77;;
73938;SDS011;62291;47.554;8.504;2022-11-25T11:13:36;13.90;;;7.88;;
73938;SDS011;62291;47.554;8.504;2022-11-25T11:16:02;14.85;;;8.63;;
73938;SDS011;62291;47.554;8.504;2022-11-25T11:18:44;12.70;;;8.85;;
73938;SDS011;62291;47.554;8.504;2022-11-25T11:21:43;12.70;;;8.77;;
73938;SDS011;62291;47.554;8.504;2022-11-25T11:24:22;13.80;;;10.15;;
73938;SDS011;62291;47.554;8.504;2022-11-25T11:27:03;16.23;;;9.98;;
73938;SDS011;62291;47.554;8.504;2022-11-25T11:29:45;12.32;;;9.50;;
73938;SDS011;62291;47.554;8.504;2022-11-25T11:32:29;14.43;;;9.40;;
73938;SDS011;62291;47.554;8.504;2022-11-25T11:35:02;12.90;;;9.30;;
73938;SDS011;62291;47.554;8.504;2022-11-25T11:37:42;14.00;;;8.57;;
73938;SDS011;62291;47.554;8.504;2022-11-25T11:46:23;15.20;;;11.63;;
73938;SDS011;62291;47.554;8.504;2022-11-25T11:54:34;19.75;;;12.73;;
73938;SDS011;62291;47.554;8.504;2022-11-25T11:57:15;20.23;;;14.05;;
73938;SDS011;62291;47.554;8.504;2022-11-25T11:59:45;18.50;;;13.70;;
73938;SDS011;62291;47.554;8.504;2022-11-25T12:10:26;19.40;;;13.38;;
73938;SDS011;62291;47.554;8.504;2022-11-25T12:15:46;17.92;;;11.63;;
73938;SDS011;62291;47.554;8.504;2022-11-25T12:18:34;18.52;;;10.65;;
73938;SDS011;62291;47.554;8.504;2022-11-25T12:21:22;20.13;;;10.55;;
73938;SDS011;62291;47.554;8.504;2022-11-25T12:29:38;20.77;;;11.77;;
73938;SDS011;62291;47.554;8.504;2022-11-25T12:37:37;17.55;;;10.30;;
73938;SDS011;62291;47.554;8.504;2022-11-25T12:40:29;18.17;;;10.63;;
73938;SDS011;62291;47.554;8.504;2022-11-25T12:48:50;23.45;;;15.50;;
73938;SDS011;62291;47.554;8.504;2022-11-25T12:57:17;16.52;;;11.68;;
73938;SDS011;62291;47.554;8.504;2022-11-25T13:05:54;18.15;;;13.07;;
73938;SDS011;62291;47.554;8.504;2022-11-25T13:11:24;22.10;;;15.13;;
73938;SDS011;62291;47.554;8.504;2022-11-25T13:17:10;20.33;;;13.75;;
73938;SDS011;62291;47.554;8.504;2022-11-25T13:19:39;23.85;;;14.30;;
73938;SDS011;62291;47.554;8.504;2022-11-25T13:22:05;18.80;;;12.23;;
73938;SDS011;62291;47.554;8.504;2022-11-25T13:24:47;18.15;;;12.35;;
73938;SDS011;62291;47.554;8.504;2022-11-25T13:27:34;20.27;;;12.02;;
73938;SDS011;62291;47.554;8.504;2022-11-25T13:30:04;18.83;;;10.93;;
73938;SDS011;62291;47.554;8.504;2022-11-25T13:32:50;16.67;;;10.68;;
73938;SDS011;62291;47.554;8.504;2022-11-25T13:37:53;14.18;;;7.80;;
73938;SDS011;62291;47.554;8.504;2022-11-25T13:42:48;12.10;;;6.55;;
73938;SDS011;62291;47.554;8.504;2022-11-25T13:50:44;10.32;;;5.50;;
73938;SDS011;62291;47.554;8.504;2022-11-25T13:53:20;8.32;;;5.18;;
73938;SDS011;62291;47.554;8.504;2022-11-25T13:56:13;9.77;;;4.95;;
73938;SDS011;62291;47.554;8.504;2022-11-25T14:04:09;11.30;;;3.65;;
73938;SDS011;62291;47.554;8.504;2022-11-25T14:06:46;7.07;;;3.33;;
73938;SDS011;62291;47.554;8.504;2022-11-25T14:12:21;8.35;;;4.00;;
73938;SDS011;62291;47.554;8.504;2022-11-25T14:15:46;7.63;;;3.40;;
73938;SDS011;62291;47.554;8.504;2022-11-25T14:26:01;8.23;;;2.97;;
73938;SDS011;62291;47.554;8.504;2022-11-25T14:28:46;5.80;;;2.70;;
73938;SDS011;62291;47.554;8.504;2022-11-25T14:31:32;5.88;;;2.90;;
73938;SDS011;62291;47.554;8.504;2022-11-25T14:34:08;9.85;;;3.30;;
73938;SDS011;62291;47.554;8.504;2022-11-25T14:36:58;7.63;;;2.70;;
73938;SDS011;62291;47.554;8.504;2022-11-25T14:39:32;9.95;;;3.47;;
73938;SDS011;62291;47.554;8.504;2022-11-25T14:42:12;11.40;;;3.17;;
73938;SDS011;62291;47.554;8.504;2022-11-25T14:44:54;6.47;;;2.85;;
73938;SDS011;62291;47.554;8.504;2022-11-25T14:47:23;9.40;;;3.63;;
73938;SDS011;62291;47.554;8.504;2022-11-25T14:49:52;7.47;;;3.03;;
73938;SDS011;62291;47.554;8.504;2022-11-25T14:52:21;6.32;;;3.17;;
73938;SDS011;62291;47.554;8.504;2022-11-25T14:54:56;9.75;;;3.20;;
73938;SDS011;62291;47.554;8.504;2022-11-25T14:57:24;8.43;;;2.95;;
73938;SDS011;62291;47.554;8.504;2022-11-25T14:59:53;6.90;;;2.63;;
73938;SDS011;62291;47.554;8.504;2022-11-25T15:02:29;9.65;;;3.30;;
73938;SDS011;62291;47.554;8.504;2022-11-25T15:05:01;9.18;;;3.03;;
73938;SDS011;62291;47.554;8.504;2022-11-25T15:08:09;10.43;;;3.25;;
73938;SDS011;62291;47.554;8.504;2022-11-25T15:10:48;7.72;;;2.80;;
73938;SDS011;62291;47.554;8.504;2022-11-25T15:13:29;10.27;;;3.30;;
73938;SDS011;62291;47.554;8.504;2022-11-25T15:16:05;8.32;;;2.35;;
73938;SDS011;62291;47.554;8.504;2022-11-25T15:18:36;9.18;;;2.78;;
73938;SDS011;62291;47.554;8.504;2022-11-25T15:21:04;8.30;;;2.97;;
73938;SDS011;62291;47.554;8.504;2022-11-25T15:23:31;11.23;;;3.00;;
73938;SDS011;62291;47.554;8.504;2022-11-25T15:26:01;8.38;;;2.50;;
73938;SDS011;62291;47.554;8.504;2022-11-25T15:28:35;9.18;;;2.40;;
73938;SDS011;62291;47.554;8.504;2022-11-25T15:31:06;10.35;;;2.60;;
73938;SDS011;62291;47.554;8.504;2022-11-25T15:33:33;13.55;;;3.63;;
73938;SDS011;62291;47.554;8.504;2022-11-25T15:36:01;11.02;;;3.85;;
73938;SDS011;62291;47.554;8.504;2022-11-25T15:38:37;12.13;;;4.32;;
73938;SDS011;62291;47.554;8.504;2022-11-25T15:41:20;12.27;;;3.85;;
73938;SDS011;62291;47.554;8.504;2022-11-25T15:43:55;12.27;;;3.13;;
73938;SDS011;62291;47.554;8.504;2022-11-25T15:46:23;10.98;;;2.95;;
73938;SDS011;62291;47.554;8.504;2022-11-25T15:48:50;14.73;;;3.70;;
73938;SDS011;62291;47.554;8.504;2022-11-25T15:51:40;9.80;;;3.28;;
73938;SDS011;62291;47.554;8.504;2022-11-25T15:54:14;13.43;;;3.08;;
73938;SDS011;62291;47.554;8.504;2022-11-25T15:56:44;11.65;;;3.10;;
73938;SDS011;62291;47.554;8.504;2022-11-25T16:07:40;12.68;;;3.20;;
73938;SDS011;62291;47.554;8.504;2022-11-25T16:21:12;10.60;;;3.08;;
73938;SDS011;62291;47.554;8.504;2022-11-25T16:23:43;13.65;;;3.10;;
73938;SDS011;62291;47.554;8.504;2022-11-25T16:26:14;9.77;;;3.43;;
73938;SDS011;62291;47.554;8.504;2022-11-25T16:28:49;11.35;;;3.50;;
73938;SDS011;62291;47.554;8.504;2022-11-25T16:31:16;17.27;;;3.72;;
73938;SDS011;62291;47.554;8.504;2022-11-25T16:33:43;10.73;;;3.88;;
73938;SDS011;62291;47.554;8.504;2022-11-25T16:36:08;11.30;;;3.78;;
73938;SDS011;62291;47.554;8.504;2022-11-25T16:38:34;8.55;;;3.88;;
73938;SDS011;62291;47.554;8.504;2022-11-25T16:41:03;11.60;;;3.95;;
73938;SDS011;62291;47.554;8.504;2022-11-25T16:43:34;10.73;;;3.72;;
73938;SDS011;62291;47.554;8.504;2022-11-25T16:46:03;13.25;;;4.00;;
73938;SDS011;62291;47.554;8.504;2022-11-25T16:48:30;11.68;;;3.90;;
73938;SDS011;62291;47.554;8.504;2022-11-25T16:50:55;14.13;;;3.28;;
73938;SDS011;62291;47.554;8.504;2022-11-25T16:53:21;13.10;;;4.10;;
73938;SDS011;62291;47.554;8.504;2022-11-25T16:55:47;18.90;;;3.90;;
73938;SDS011;62291;47.554;8.504;2022-11-25T16:58:20;11.90;;;3.45;;
73938;SDS011;62291;47.554;8.504;2022-11-25T17:00:49;12.30;;;4.30;;
73938;SDS011;62291;47.554;8.504;2022-11-25T17:03:19;12.73;;;3.63;;
73938;SDS011;62291;47.554;8.504;2022-11-25T17:05:51;14.52;;;4.03;;
73938;SDS011;62291;47.554;8.504;2022-11-25T17:08:19;15.82;;;3.92;;